createdAt,value
2022-11-18T13:15:47.700Z,23.04
2022-11-18T13:16:47.989Z,23.04
2022-11-18T13:17:48.316Z,23.02
2022-11-18T13:18:48.620Z,23.04
2022-11-18T13:19:48.919Z,23.04
2022-11-18T13:20:49.217Z,23.04
2022-11-18T13:21:49.532Z,23.05
2022-11-18T13:22:49.819Z,23.05
2022-11-18T13:23:50.141Z,23.04
2022-11-18T13:24:50.418Z,23.04
2022-11-18T13:25:50.706Z,23.05
2022-11-18T13:26:51.600Z,23.04
2022-11-18T13:27:51.200Z,23.02
2022-11-18T13:28:51.483Z,23.04
2022-11-18T13:29:54.218Z,23.02
2022-11-18T13:30:52.022Z,23.04
2022-11-18T13:31:52.313Z,23.02
2022-11-18T13:32:52.581Z,23.02
2022-11-18T13:33:52.891Z,23.02
2022-11-18T13:34:53.052Z,23.04
2022-11-18T13:35:53.334Z,23.05
2022-11-18T13:36:53.602Z,23.05
2022-11-18T13:37:53.907Z,23.07
2022-11-18T13:38:54.054Z,23.09
2022-11-18T13:39:54.346Z,23.09
2022-11-18T13:40:54.613Z,23.09
2022-11-18T13:41:54.885Z,23.12
2022-11-18T13:42:55.185Z,23.12
2022-11-18T13:43:55.444Z,23.13
2022-11-18T13:44:55.712Z,23.13
2022-11-18T13:45:55.995Z,23.15
2022-11-18T13:46:56.259Z,23.15
2022-11-18T13:47:56.549Z,23.17
2022-11-18T13:48:56.816Z,23.19
2022-11-18T13:49:57.115Z,23.20
2022-11-18T13:50:57.259Z,23.22
2022-11-18T13:51:57.548Z,23.22
2022-11-18T13:52:57.700Z,23.22
2022-11-18T13:53:57.959Z,23.22
2022-11-18T13:54:58.219Z,23.23
2022-11-18T13:55:58.614Z,23.22
2022-11-18T13:56:59.707Z,23.25
2022-11-18T13:57:59.047Z,23.25
2022-11-18T14:00:00.560Z,23.25
2022-11-18T14:00:59.833Z,23.28
2022-11-18T14:01:59.972Z,23.28
2022-11-18T14:03:00.242Z,23.28
2022-11-18T14:04:00.485Z,23.32
2022-11-18T14:05:00.754Z,23.31
2022-11-18T14:06:01.013Z,23.32
2022-11-18T14:07:01.333Z,23.32
2022-11-18T14:08:01.476Z,23.33
2022-11-18T14:09:01.743Z,23.35
2022-11-18T14:10:01.897Z,23.35
2022-11-18T14:11:02.164Z,23.35
2022-11-18T14:12:02.413Z,23.35
2022-11-18T14:13:02.685Z,23.36
2022-11-18T14:14:02.932Z,23.36
2022-11-18T14:15:03.195Z,23.35
2022-11-18T14:16:03.466Z,23.36
2022-11-18T14:17:03.779Z,23.38
2022-11-18T14:18:03.988Z,23.39
2022-11-18T14:19:04.257Z,23.38
2022-11-18T14:20:04.497Z,23.39
2022-11-18T14:21:04.767Z,23.39
2022-11-18T14:22:07.441Z,23.40
2022-11-18T14:23:06.257Z,23.40
2022-11-18T14:24:05.448Z,23.40
2022-11-18T14:25:05.719Z,23.42
2022-11-18T14:26:05.979Z,23.40
2022-11-18T14:27:06.249Z,23.40
2022-11-18T14:28:06.488Z,23.43
2022-11-18T14:29:06.809Z,23.46
2022-11-18T14:30:06.901Z,23.43
2022-11-18T14:31:07.167Z,23.46
2022-11-18T14:32:07.427Z,23.43
2022-11-18T14:33:07.691Z,23.46
2022-11-18T14:34:07.929Z,23.46
2022-11-18T14:35:08.191Z,23.47
2022-11-18T14:36:08.421Z,23.47
2022-11-18T14:37:08.702Z,23.48
2022-11-18T14:38:35.857Z,23.47
2022-11-18T14:39:25.876Z,23.48
2022-11-18T14:40:10.247Z,23.48
2022-11-18T14:41:09.424Z,23.50
2022-11-18T14:42:09.663Z,23.50
2022-11-18T14:43:09.944Z,23.51
2022-11-18T14:44:10.192Z,23.51
2022-11-18T14:45:10.445Z,23.50
